sensor_id;sensor_type;location;lat;lon;timestamp;P1;durP1;ratioP1;P2;durP2;ratioP2
81656;SDS011;71067;51.482;-0.580;2024-01-30T00:01:53;20.38;;;7.97;;
81656;SDS011;71067;51.482;-0.580;2024-01-30T00:04:18;19.02;;;8.23;;
81656;SDS011;71067;51.482;-0.580;2024-01-30T00:06:44;15.03;;;7.43;;
81656;SDS011;71067;51.482;-0.580;2024-01-30T00:09:10;15.32;;;6.85;;
81656;SDS011;71067;51.482;-0.580;2024-01-30T00:11:38;19.08;;;7.43;;
81656;SDS011;71067;51.482;-0.580;2024-01-30T00:14:04;15.90;;;7.10;;
81656;SDS011;71067;51.482;-0.580;2024-01-30T00:16:30;14.52;;;5.72;;
81656;SDS011;71067;51.482;-0.580;2024-01-30T00:18:55;11.35;;;4.95;;
81656;SDS011;71067;51.482;-0.580;2024-01-30T00:21:21;8.48;;;3.67;;
81656;SDS011;71067;51.482;-0.580;2024-01-30T00:23:47;6.85;;;3.13;;
81656;SDS011;71067;51.482;-0.580;2024-01-30T00:26:12;4.93;;;2.08;;
81656;SDS011;71067;51.482;-0.580;2024-01-30T00:28:39;3.63;;;1.73;;
81656;SDS011;71067;51.482;-0.580;2024-01-30T00:31:08;4.80;;;1.90;;
81656;SDS011;71067;51.482;-0.580;2024-01-30T00:33:37;5.20;;;1.40;;
81656;SDS011;71067;51.482;-0.580;2024-01-30T00:36:03;5.97;;;1.52;;
81656;SDS011;71067;51.482;-0.580;2024-01-30T00:38:28;5.60;;;1.33;;
81656;SDS011;71067;51.482;-0.580;2024-01-30T00:40:54;3.67;;;1.33;;
81656;SDS011;71067;51.482;-0.580;2024-01-30T00:43:19;3.90;;;1.20;;
81656;SDS011;71067;51.482;-0.580;2024-01-30T00:45:46;2.78;;;1.20;;
81656;SDS011;71067;51.482;-0.580;2024-01-30T00:48:11;4.18;;;1.20;;
81656;SDS011;71067;51.482;-0.580;2024-01-30T00:50:37;3.80;;;1.15;;
81656;SDS011;71067;51.482;-0.580;2024-01-30T00:53:02;4.80;;;1.33;;
81656;SDS011;71067;51.482;-0.580;2024-01-30T00:55:27;7.78;;;1.30;;
81656;SDS011;71067;51.482;-0.580;2024-01-30T00:57:53;5.83;;;1.47;;
81656;SDS011;71067;51.482;-0.580;2024-01-30T01:00:18;6.90;;;1.63;;
81656;SDS011;71067;51.482;-0.580;2024-01-30T01:02:45;6.32;;;1.30;;
81656;SDS011;71067;51.482;-0.580;2024-01-30T01:05:11;5.05;;;1.27;;
81656;SDS011;71067;51.482;-0.580;2024-01-30T01:07:36;8.48;;;1.42;;
81656;SDS011;71067;51.482;-0.580;2024-01-30T01:10:02;8.27;;;1.25;;
81656;SDS011;71067;51.482;-0.580;2024-01-30T01:12:27;4.95;;;1.00;;
81656;SDS011;71067;51.482;-0.580;2024-01-30T01:14:53;5.57;;;0.95;;
81656;SDS011;71067;51.482;-0.580;2024-01-30T01:17:18;5.13;;;0.83;;
81656;SDS011;71067;51.482;-0.580;2024-01-30T01:19:43;2.47;;;0.57;;
81656;SDS011;71067;51.482;-0.580;2024-01-30T01:22:09;6.15;;;1.13;;
81656;SDS011;71067;51.482;-0.580;2024-01-30T01:24:35;4.15;;;1.00;;
81656;SDS011;71067;51.482;-0.580;2024-01-30T01:27:00;5.43;;;1.10;;
81656;SDS011;71067;51.482;-0.580;2024-01-30T01:29:26;5.45;;;1.20;;
81656;SDS011;71067;51.482;-0.580;2024-01-30T01:31:56;4.40;;;1.23;;
81656;SDS011;71067;51.482;-0.580;2024-01-30T01:34:22;4.65;;;1.30;;
81656;SDS011;71067;51.482;-0.580;2024-01-30T01:36:48;5.30;;;1.40;;
81656;SDS011;71067;51.482;-0.580;2024-01-30T01:39:14;2.72;;;1.00;;
81656;SDS011;71067;51.482;-0.580;2024-01-30T01:41:40;5.32;;;1.35;;
81656;SDS011;71067;51.482;-0.580;2024-01-30T01:44:06;3.75;;;0.70;;
81656;SDS011;71067;51.482;-0.580;2024-01-30T01:46:32;5.22;;;1.10;;
81656;SDS011;71067;51.482;-0.580;2024-01-30T01:48:59;4.13;;;0.98;;
81656;SDS011;71067;51.482;-0.580;2024-01-30T01:51:26;3.17;;;0.90;;
81656;SDS011;71067;51.482;-0.580;2024-01-30T01:53:53;3.15;;;1.02;;
81656;SDS011;71067;51.482;-0.580;2024-01-30T01:56:19;3.72;;;0.82;;
81656;SDS011;71067;51.482;-0.580;2024-01-30T01:58:45;3.33;;;0.93;;
81656;SDS011;71067;51.482;-0.580;2024-01-30T02:01:12;2.38;;;1.02;;
81656;SDS011;71067;51.482;-0.580;2024-01-30T02:03:38;2.17;;;0.80;;
81656;SDS011;71067;51.482;-0.580;2024-01-30T02:06:04;2.58;;;0.68;;
81656;SDS011;71067;51.482;-0.580;2024-01-30T02:08:30;3.17;;;0.90;;
81656;SDS011;71067;51.482;-0.580;2024-01-30T02:10:55;3.15;;;0.98;;
81656;SDS011;71067;51.482;-0.580;2024-01-30T02:13:21;2.25;;;0.80;;
81656;SDS011;71067;51.482;-0.580;2024-01-30T02:15:50;4.57;;;0.93;;
81656;SDS011;71067;51.482;-0.580;2024-01-30T02:18:16;4.68;;;1.13;;
81656;SDS011;71067;51.482;-0.580;2024-01-30T02:20:41;4.50;;;0.97;;
81656;SDS011;71067;51.482;-0.580;2024-01-30T02:23:07;4.07;;;1.20;;
81656;SDS011;71067;51.482;-0.580;2024-01-30T02:25:37;4.03;;;0.88;;
81656;SDS011;71067;51.482;-0.580;2024-01-30T02:28:09;3.38;;;0.45;;
81656;SDS011;71067;51.482;-0.580;2024-01-30T02:30:34;3.00;;;0.77;;
81656;SDS011;71067;51.482;-0.580;2024-01-30T02:32:59;4.13;;;0.90;;
81656;SDS011;71067;51.482;-0.580;2024-01-30T02:35:25;3.35;;;0.90;;
81656;SDS011;71067;51.482;-0.580;2024-01-30T02:37:50;2.35;;;0.70;;
81656;SDS011;71067;51.482;-0.580;2024-01-30T02:40:15;2.28;;;0.63;;
81656;SDS011;71067;51.482;-0.580;2024-01-30T02:42:41;8.52;;;1.20;;
81656;SDS011;71067;51.482;-0.580;2024-01-30T02:45:07;4.45;;;0.65;;
81656;SDS011;71067;51.482;-0.580;2024-01-30T02:47:33;2.83;;;0.98;;
81656;SDS011;71067;51.482;-0.580;2024-01-30T02:49:58;2.30;;;0.60;;
81656;SDS011;71067;51.482;-0.580;2024-01-30T02:52:24;6.32;;;0.80;;
81656;SDS011;71067;51.482;-0.580;2024-01-30T02:54:49;4.20;;;0.70;;
81656;SDS011;71067;51.482;-0.580;2024-01-30T02:57:14;2.83;;;0.50;;
81656;SDS011;71067;51.482;-0.580;2024-01-30T02:59:40;2.80;;;0.50;;
81656;SDS011;71067;51.482;-0.580;2024-01-30T03:02:05;2.47;;;0.33;;
81656;SDS011;71067;51.482;-0.580;2024-01-30T03:04:30;3.45;;;0.60;;
81656;SDS011;71067;51.482;-0.580;2024-01-30T03:06:56;2.55;;;0.40;;
81656;SDS011;71067;51.482;-0.580;2024-01-30T03:09:21;3.05;;;0.50;;
81656;SDS011;71067;51.482;-0.580;2024-01-30T03:11:46;2.17;;;0.40;;
81656;SDS011;71067;51.482;-0.580;2024-01-30T03:14:11;1.38;;;0.45;;
81656;SDS011;71067;51.482;-0.580;2024-01-30T03:16:37;2.85;;;0.30;;
81656;SDS011;71067;51.482;-0.580;2024-01-30T03:19:03;2.88;;;1.23;;
81656;SDS011;71067;51.482;-0.580;2024-01-30T03:21:28;2.85;;;0.47;;
81656;SDS011;71067;51.482;-0.580;2024-01-30T03:23:54;1.27;;;0.40;;
81656;SDS011;71067;51.482;-0.580;2024-01-30T03:26:19;2.55;;;0.57;;
81656;SDS011;71067;51.482;-0.580;2024-01-30T03:28:45;2.83;;;0.40;;
81656;SDS011;71067;51.482;-0.580;2024-01-30T03:31:10;2.72;;;0.50;;
81656;SDS011;71067;51.482;-0.580;2024-01-30T03:33:36;2.30;;;0.40;;
81656;SDS011;71067;51.482;-0.580;2024-01-30T03:36:04;1.73;;;0.30;;
81656;SDS011;71067;51.482;-0.580;2024-01-30T03:38:30;2.78;;;0.30;;
81656;SDS011;71067;51.482;-0.580;2024-01-30T03:40:57;2.08;;;0.45;;
81656;SDS011;71067;51.482;-0.580;2024-01-30T03:43:23;1.02;;;0.40;;
81656;SDS011;71067;51.482;-0.580;2024-01-30T03:45:49;1.48;;;0.40;;
81656;SDS011;71067;51.482;-0.580;2024-01-30T03:48:14;3.08;;;0.35;;
81656;SDS011;71067;51.482;-0.580;2024-01-30T03:50:39;2.67;;;0.40;;
81656;SDS011;71067;51.482;-0.580;2024-01-30T03:53:05;2.28;;;0.30;;
81656;SDS011;71067;51.482;-0.580;2024-01-30T03:55:30;2.67;;;0.50;;
81656;SDS011;71067;51.482;-0.580;2024-01-30T03:57:55;1.13;;;0.40;;
81656;SDS011;71067;51.482;-0.580;2024-01-30T04:00:21;0.95;;;0.35;;
81656;SDS011;71067;51.482;-0.580;2024-01-30T04:02:46;2.10;;;0.30;;
81656;SDS011;71067;51.482;-0.580;2024-01-30T04:05:11;2.40;;;0.60;;
81656;SDS011;71067;51.482;-0.580;2024-01-30T04:07:37;2.67;;;0.50;;
81656;SDS011;71067;51.482;-0.580;2024-01-30T04:10:02;1.20;;;0.40;;
81656;SDS011;71067;51.482;-0.580;2024-01-30T04:12:30;1.17;;;0.20;;
81656;SDS011;71067;51.482;-0.580;2024-01-30T04:14:56;2.28;;;0.30;;
81656;SDS011;71067;51.482;-0.580;2024-01-30T04:17:22;3.47;;;0.50;;
81656;SDS011;71067;51.482;-0.580;2024-01-30T04:19:47;1.30;;;0.40;;
81656;SDS011;71067;51.482;-0.580;2024-01-30T04:22:12;1.07;;;0.50;;
81656;SDS011;71067;51.482;-0.580;2024-01-30T04:24:37;1.63;;;0.68;;
81656;SDS011;71067;51.482;-0.580;2024-01-30T04:27:03;1.48;;;0.47;;
81656;SDS011;71067;51.482;-0.580;2024-01-30T04:29:29;3.83;;;0.65;;
81656;SDS011;71067;51.482;-0.580;2024-01-30T04:31:54;1.77;;;0.70;;
81656;SDS011;71067;51.482;-0.580;2024-01-30T04:34:19;1.00;;;0.50;;
81656;SDS011;71067;51.482;-0.580;2024-01-30T04:36:45;2.08;;;0.80;;
81656;SDS011;71067;51.482;-0.580;2024-01-30T04:39:11;1.75;;;0.60;;
81656;SDS011;71067;51.482;-0.580;2024-01-30T04:41:37;3.35;;;0.80;;
81656;SDS011;71067;51.482;-0.580;2024-01-30T04:44:03;1.70;;;0.70;;
81656;SDS011;71067;51.482;-0.580;2024-01-30T04:46:28;1.30;;;0.85;;
81656;SDS011;71067;51.482;-0.580;2024-01-30T04:48:53;1.80;;;0.70;;
81656;SDS011;71067;51.482;-0.580;2024-01-30T04:51:19;1.80;;;0.70;;
81656;SDS011;71067;51.482;-0.580;2024-01-30T04:53:44;2.88;;;0.80;;
81656;SDS011;71067;51.482;-0.580;2024-01-30T04:56:09;1.70;;;0.70;;
81656;SDS011;71067;51.482;-0.580;2024-01-30T04:58:35;1.67;;;0.80;;
81656;SDS011;71067;51.482;-0.580;2024-01-30T05:01:00;2.25;;;0.80;;
81656;SDS011;71067;51.482;-0.580;2024-01-30T05:03:27;2.08;;;0.85;;
81656;SDS011;71067;51.482;-0.580;2024-01-30T05:05:52;3.40;;;1.00;;
81656;SDS011;71067;51.482;-0.580;2024-01-30T05:08:17;2.47;;;1.00;;
81656;SDS011;71067;51.482;-0.580;2024-01-30T05:10:43;4.80;;;1.37;;
81656;SDS011;71067;51.482;-0.580;2024-01-30T05:13:08;2.83;;;1.47;;
81656;SDS011;71067;51.482;-0.580;2024-01-30T05:15:33;5.35;;;1.20;;
81656;SDS011;71067;51.482;-0.580;2024-01-30T05:17:58;3.42;;;1.30;;
81656;SDS011;71067;51.482;-0.580;2024-01-30T05:20:24;3.45;;;1.15;;
81656;SDS011;71067;51.482;-0.580;2024-01-30T05:22:52;2.70;;;1.33;;
81656;SDS011;71067;51.482;-0.580;2024-01-30T05:25:18;3.75;;;1.20;;
81656;SDS011;71067;51.482;-0.580;2024-01-30T05:27:44;3.15;;;1.25;;
81656;SDS011;71067;51.482;-0.580;2024-01-30T05:30:09;3.80;;;1.83;;
81656;SDS011;71067;51.482;-0.580;2024-01-30T05:32:35;4.35;;;1.77;;
81656;SDS011;71067;51.482;-0.580;2024-01-30T05:35:01;5.25;;;1.77;;
81656;SDS011;71067;51.482;-0.580;2024-01-30T05:37:26;5.85;;;2.05;;
81656;SDS011;71067;51.482;-0.580;2024-01-30T05:39:52;4.40;;;2.13;;
81656;SDS011;71067;51.482;-0.580;2024-01-30T05:42:18;5.05;;;2.22;;
81656;SDS011;71067;51.482;-0.580;2024-01-30T05:44:43;4.90;;;2.47;;
81656;SDS011;71067;51.482;-0.580;2024-01-30T05:47:08;5.47;;;2.50;;
81656;SDS011;71067;51.482;-0.580;2024-01-30T05:49:34;6.10;;;2.47;;
81656;SDS011;71067;51.482;-0.580;2024-01-30T05:52:00;5.43;;;2.85;;
81656;SDS011;71067;51.482;-0.580;2024-01-30T05:54:26;5.65;;;2.60;;
81656;SDS011;71067;51.482;-0.580;2024-01-30T05:56:52;7.20;;;2.97;;
81656;SDS011;71067;51.482;-0.580;2024-01-30T05:59:17;5.25;;;2.55;;
81656;SDS011;71067;51.482;-0.580;2024-01-30T06:01:46;6.30;;;2.80;;
81656;SDS011;71067;51.482;-0.580;2024-01-30T06:04:12;6.15;;;3.15;;
81656;SDS011;71067;51.482;-0.580;2024-01-30T06:06:38;7.88;;;3.00;;
81656;SDS011;71067;51.482;-0.580;2024-01-30T06:09:03;5.90;;;2.95;;
81656;SDS011;71067;51.482;-0.580;2024-01-30T06:11:29;5.07;;;2.60;;
81656;SDS011;71067;51.482;-0.580;2024-01-30T06:13:54;4.03;;;3.07;;
81656;SDS011;71067;51.482;-0.580;2024-01-30T06:16:19;4.88;;;2.80;;
81656;SDS011;71067;51.482;-0.580;2024-01-30T06:18:46;5.57;;;3.25;;
81656;SDS011;71067;51.482;-0.580;2024-01-30T06:21:12;3.63;;;2.60;;
81656;SDS011;71067;51.482;-0.580;2024-01-30T06:23:38;4.68;;;2.50;;
81656;SDS011;71067;51.482;-0.580;2024-01-30T06:26:03;4.10;;;2.50;;
81656;SDS011;71067;51.482;-0.580;2024-01-30T06:28:29;3.72;;;2.15;;
81656;SDS011;71067;51.482;-0.580;2024-01-30T06:30:54;3.60;;;2.37;;
81656;SDS011;71067;51.482;-0.580;2024-01-30T06:33:19;3.55;;;1.98;;
81656;SDS011;71067;51.482;-0.580;2024-01-30T06:35:45;3.95;;;2.38;;
81656;SDS011;71067;51.482;-0.580;2024-01-30T06:38:11;5.43;;;2.28;;
81656;SDS011;71067;51.482;-0.580;2024-01-30T06:40:36;4.43;;;2.40;;
81656;SDS011;71067;51.482;-0.580;2024-01-30T06:43:02;4.45;;;2.10;;
81656;SDS011;71067;51.482;-0.580;2024-01-30T06:45:29;3.38;;;2.13;;
81656;SDS011;71067;51.482;-0.580;2024-01-30T06:47:54;3.83;;;2.08;;
81656;SDS011;71067;51.482;-0.580;2024-01-30T06:50:19;3.35;;;2.13;;
81656;SDS011;71067;51.482;-0.580;2024-01-30T06:52:45;3.40;;;1.80;;
81656;SDS011;71067;51.482;-0.580;2024-01-30T06:55:10;2.47;;;1.65;;
81656;SDS011;71067;51.482;-0.580;2024-01-30T06:57:36;3.95;;;2.15;;
81656;SDS011;71067;51.482;-0.580;2024-01-30T07:00:02;2.45;;;1.40;;
81656;SDS011;71067;51.482;-0.580;2024-01-30T07:02:28;2.17;;;1.50;;
81656;SDS011;71067;51.482;-0.580;2024-01-30T07:04:54;2.97;;;1.42;;
81656;SDS011;71067;51.482;-0.580;2024-01-30T07:07:19;4.75;;;1.15;;
81656;SDS011;71067;51.482;-0.580;2024-01-30T07:09:45;1.60;;;0.90;;
81656;SDS011;71067;51.482;-0.580;2024-01-30T07:12:10;2.80;;;0.82;;
81656;SDS011;71067;51.482;-0.580;2024-01-30T07:14:36;1.80;;;0.60;;
81656;SDS011;71067;51.482;-0.580;2024-01-30T07:17:01;1.23;;;0.50;;
81656;SDS011;71067;51.482;-0.580;2024-01-30T07:19:27;1.33;;;0.60;;
81656;SDS011;71067;51.482;-0.580;2024-01-30T07:21:52;1.87;;;0.50;;
81656;SDS011;71067;51.482;-0.580;2024-01-30T07:24:18;1.70;;;0.70;;
81656;SDS011;71067;51.482;-0.580;2024-01-30T07:26:43;0.85;;;0.40;;
81656;SDS011;71067;51.482;-0.580;2024-01-30T07:29:08;0.90;;;0.43;;
81656;SDS011;71067;51.482;-0.580;2024-01-30T07:31:33;0.82;;;0.40;;
81656;SDS011;71067;51.482;-0.580;2024-01-30T07:33:59;1.00;;;0.50;;
81656;SDS011;71067;51.482;-0.580;2024-01-30T07:36:24;2.03;;;0.40;;
81656;SDS011;71067;51.482;-0.580;2024-01-30T07:38:49;2.07;;;0.50;;
81656;SDS011;71067;51.482;-0.580;2024-01-30T07:41:15;1.10;;;0.70;;
81656;SDS011;71067;51.482;-0.580;2024-01-30T07:43:40;1.55;;;0.60;;
81656;SDS011;71067;51.482;-0.580;2024-01-30T07:46:05;1.73;;;0.50;;
81656;SDS011;71067;51.482;-0.580;2024-01-30T07:48:32;1.00;;;0.50;;
81656;SDS011;71067;51.482;-0.580;2024-01-30T07:50:59;1.05;;;0.50;;
81656;SDS011;71067;51.482;-0.580;2024-01-30T07:53:24;0.70;;;0.40;;
81656;SDS011;71067;51.482;-0.580;2024-01-30T07:55:49;2.50;;;0.57;;
81656;SDS011;71067;51.482;-0.580;2024-01-30T07:58:15;0.88;;;0.40;;
81656;SDS011;71067;51.482;-0.580;2024-01-30T08:00:40;0.57;;;0.30;;
81656;SDS011;71067;51.482;-0.580;2024-01-30T08:03:06;0.95;;;0.40;;
81656;SDS011;71067;51.482;-0.580;2024-01-30T08:05:31;1.40;;;0.40;;
81656;SDS011;71067;51.482;-0.580;2024-01-30T08:07:57;1.70;;;0.60;;
81656;SDS011;71067;51.482;-0.580;2024-01-30T08:10:22;0.90;;;0.40;;
81656;SDS011;71067;51.482;-0.580;2024-01-30T08:12:47;1.45;;;0.50;;
81656;SDS011;71067;51.482;-0.580;2024-01-30T08:15:13;0.85;;;0.40;;
81656;SDS011;71067;51.482;-0.580;2024-01-30T08:17:38;1.85;;;0.40;;
81656;SDS011;71067;51.482;-0.580;2024-01-30T08:20:04;2.33;;;0.50;;
81656;SDS011;71067;51.482;-0.580;2024-01-30T08:22:43;0.60;;;0.32;;
81656;SDS011;71067;51.482;-0.580;2024-01-30T08:25:08;0.82;;;0.38;;
81656;SDS011;71067;51.482;-0.580;2024-01-30T08:27:35;1.67;;;0.55;;
81656;SDS011;71067;51.482;-0.580;2024-01-30T08:30:02;2.45;;;0.60;;
81656;SDS011;71067;51.482;-0.580;2024-01-30T08:32:28;0.70;;;0.38;;
81656;SDS011;71067;51.482;-0.580;2024-01-30T08:34:53;0.80;;;0.40;;
81656;SDS011;71067;51.482;-0.580;2024-01-30T08:37:18;0.82;;;0.32;;
81656;SDS011;71067;51.482;-0.580;2024-01-30T08:39:44;1.52;;;0.50;;
81656;SDS011;71067;51.482;-0.580;2024-01-30T08:42:09;0.80;;;0.35;;
81656;SDS011;71067;51.482;-0.580;2024-01-30T08:44:35;0.80;;;0.30;;
81656;SDS011;71067;51.482;-0.580;2024-01-30T08:47:00;0.90;;;0.50;;
81656;SDS011;71067;51.482;-0.580;2024-01-30T08:49:26;1.27;;;0.50;;
81656;SDS011;71067;51.482;-0.580;2024-01-30T08:52:01;1.08;;;0.40;;
81656;SDS011;71067;51.482;-0.580;2024-01-30T08:54:26;0.63;;;0.30;;
81656;SDS011;71067;51.482;-0.580;2024-01-30T08:56:51;0.80;;;0.47;;
81656;SDS011;71067;51.482;-0.580;2024-01-30T08:59:18;1.02;;;0.40;;
81656;SDS011;71067;51.482;-0.580;2024-01-30T09:01:43;1.48;;;0.40;;
81656;SDS011;71067;51.482;-0.580;2024-01-30T09:04:09;2.13;;;0.50;;
81656;SDS011;71067;51.482;-0.580;2024-01-30T09:06:34;1.37;;;0.40;;
81656;SDS011;71067;51.482;-0.580;2024-01-30T09:08:59;1.77;;;0.55;;
81656;SDS011;71067;51.482;-0.580;2024-01-30T09:11:25;1.50;;;0.35;;
81656;SDS011;71067;51.482;-0.580;2024-01-30T09:13:50;2.58;;;0.50;;
81656;SDS011;71067;51.482;-0.580;2024-01-30T09:16:16;0.80;;;0.40;;
81656;SDS011;71067;51.482;-0.580;2024-01-30T09:18:41;1.60;;;0.50;;
81656;SDS011;71067;51.482;-0.580;2024-01-30T09:21:07;2.93;;;0.40;;
81656;SDS011;71067;51.482;-0.580;2024-01-30T09:23:35;2.22;;;0.40;;
81656;SDS011;71067;51.482;-0.580;2024-01-30T09:26:00;0.90;;;0.38;;
81656;SDS011;71067;51.482;-0.580;2024-01-30T09:28:26;1.77;;;0.43;;
81656;SDS011;71067;51.482;-0.580;2024-01-30T09:30:51;1.38;;;0.40;;
81656;SDS011;71067;51.482;-0.580;2024-01-30T09:33:17;0.83;;;0.30;;
81656;SDS011;71067;51.482;-0.580;2024-01-30T09:35:42;2.47;;;0.40;;
81656;SDS011;71067;51.482;-0.580;2024-01-30T09:38:11;1.90;;;0.38;;
81656;SDS011;71067;51.482;-0.580;2024-01-30T09:40:47;1.50;;;0.40;;
81656;SDS011;71067;51.482;-0.580;2024-01-30T09:43:30;2.13;;;0.40;;
81656;SDS011;71067;51.482;-0.580;2024-01-30T09:45:59;1.70;;;0.40;;
81656;SDS011;71067;51.482;-0.580;2024-01-30T09:48:27;1.30;;;0.40;;
81656;SDS011;71067;51.482;-0.580;2024-01-30T09:50:54;0.93;;;0.35;;
81656;SDS011;71067;51.482;-0.580;2024-01-30T09:53:20;1.83;;;0.40;;
81656;SDS011;71067;51.482;-0.580;2024-01-30T09:55:48;1.00;;;0.40;;
81656;SDS011;71067;51.482;-0.580;2024-01-30T09:58:16;2.25;;;0.47;;
81656;SDS011;71067;51.482;-0.580;2024-01-30T10:00:41;1.10;;;0.40;;
81656;SDS011;71067;51.482;-0.580;2024-01-30T10:03:07;2.08;;;0.50;;
81656;SDS011;71067;51.482;-0.580;2024-01-30T10:05:34;1.08;;;0.43;;
81656;SDS011;71067;51.482;-0.580;2024-01-30T10:08:05;2.00;;;0.43;;
81656;SDS011;71067;51.482;-0.580;2024-01-30T10:10:31;1.17;;;0.40;;
81656;SDS011;71067;51.482;-0.580;2024-01-30T10:12:57;1.05;;;0.40;;
81656;SDS011;71067;51.482;-0.580;2024-01-30T10:15:22;2.72;;;0.52;;
81656;SDS011;71067;51.482;-0.580;2024-01-30T10:17:52;0.80;;;0.40;;
81656;SDS011;71067;51.482;-0.580;2024-01-30T10:20:17;1.40;;;0.70;;
81656;SDS011;71067;51.482;-0.580;2024-01-30T10:22:44;1.77;;;0.60;;
81656;SDS011;71067;51.482;-0.580;2024-01-30T10:25:12;1.90;;;0.60;;
81656;SDS011;71067;51.482;-0.580;2024-01-30T10:27:39;2.40;;;0.40;;
81656;SDS011;71067;51.482;-0.580;2024-01-30T10:30:05;1.25;;;0.40;;
81656;SDS011;71067;51.482;-0.580;2024-01-30T10:32:31;0.93;;;0.30;;
81656;SDS011;71067;51.482;-0.580;2024-01-30T10:34:56;1.67;;;0.40;;
81656;SDS011;71067;51.482;-0.580;2024-01-30T10:37:21;0.70;;;0.20;;
81656;SDS011;71067;51.482;-0.580;2024-01-30T10:39:50;1.13;;;0.50;;
81656;SDS011;71067;51.482;-0.580;2024-01-30T10:42:20;1.48;;;0.30;;
81656;SDS011;71067;51.482;-0.580;2024-01-30T10:47:28;0.50;;;0.20;;
81656;SDS011;71067;51.482;-0.580;2024-01-30T10:49:54;0.70;;;0.25;;
81656;SDS011;71067;51.482;-0.580;2024-01-30T10:52:21;1.58;;;0.50;;
81656;SDS011;71067;51.482;-0.580;2024-01-30T10:54:48;0.88;;;0.30;;
81656;SDS011;71067;51.482;-0.580;2024-01-30T10:57:19;1.50;;;0.47;;
81656;SDS011;71067;51.482;-0.580;2024-01-30T10:59:46;1.55;;;0.60;;
81656;SDS011;71067;51.482;-0.580;2024-01-30T11:02:12;2.10;;;0.40;;
81656;SDS011;71067;51.482;-0.580;2024-01-30T11:04:38;0.73;;;0.40;;
81656;SDS011;71067;51.482;-0.580;2024-01-30T11:07:19;1.40;;;0.40;;
81656;SDS011;71067;51.482;-0.580;2024-01-30T11:09:59;1.17;;;0.30;;
81656;SDS011;71067;51.482;-0.580;2024-01-30T11:12:28;0.43;;;0.30;;
81656;SDS011;71067;51.482;-0.580;2024-01-30T11:15:02;0.93;;;0.30;;
81656;SDS011;71067;51.482;-0.580;2024-01-30T11:20:27;2.05;;;0.40;;
81656;SDS011;71067;51.482;-0.580;2024-01-30T11:22:58;0.90;;;0.20;;
81656;SDS011;71067;51.482;-0.580;2024-01-30T11:25:25;0.65;;;0.20;;
81656;SDS011;71067;51.482;-0.580;2024-01-30T11:27:51;0.55;;;0.20;;
81656;SDS011;71067;51.482;-0.580;2024-01-30T11:30:24;1.85;;;0.30;;
81656;SDS011;71067;51.482;-0.580;2024-01-30T11:33:06;0.40;;;0.13;;
81656;SDS011;71067;51.482;-0.580;2024-01-30T11:35:42;0.98;;;0.40;;
81656;SDS011;71067;51.482;-0.580;2024-01-30T11:38:10;0.93;;;0.30;;
81656;SDS011;71067;51.482;-0.580;2024-01-30T11:40:39;0.73;;;0.40;;
81656;SDS011;71067;51.482;-0.580;2024-01-30T11:43:06;1.95;;;0.50;;
81656;SDS011;71067;51.482;-0.580;2024-01-30T11:45:33;1.15;;;0.50;;
81656;SDS011;71067;51.482;-0.580;2024-01-30T11:47:59;1.30;;;0.47;;
81656;SDS011;71067;51.482;-0.580;2024-01-30T11:50:26;1.73;;;0.70;;
81656;SDS011;71067;51.482;-0.580;2024-01-30T11:52:52;1.63;;;0.50;;
81656;SDS011;71067;51.482;-0.580;2024-01-30T11:55:19;1.55;;;0.50;;
81656;SDS011;71067;51.482;-0.580;2024-01-30T11:57:44;1.70;;;0.50;;
81656;SDS011;71067;51.482;-0.580;2024-01-30T12:00:14;2.67;;;0.68;;
81656;SDS011;71067;51.482;-0.580;2024-01-30T12:02:40;1.15;;;0.40;;
81656;SDS011;71067;51.482;-0.580;2024-01-30T12:05:06;1.10;;;0.40;;
81656;SDS011;71067;51.482;-0.580;2024-01-30T12:07:32;1.13;;;0.50;;
81656;SDS011;71067;51.482;-0.580;2024-01-30T12:09:58;1.25;;;0.40;;
81656;SDS011;71067;51.482;-0.580;2024-01-30T12:12:26;1.00;;;0.40;;
81656;SDS011;71067;51.482;-0.580;2024-01-30T12:15:06;0.93;;;0.40;;
81656;SDS011;71067;51.482;-0.580;2024-01-30T12:17:33;0.73;;;0.30;;
81656;SDS011;71067;51.482;-0.580;2024-01-30T12:20:03;0.80;;;0.38;;
81656;SDS011;71067;51.482;-0.580;2024-01-30T12:22:38;0.90;;;0.40;;
81656;SDS011;71067;51.482;-0.580;2024-01-30T12:25:13;0.73;;;0.35;;
81656;SDS011;71067;51.482;-0.580;2024-01-30T12:27:49;0.80;;;0.40;;
81656;SDS011;71067;51.482;-0.580;2024-01-30T12:30:16;1.63;;;0.57;;
81656;SDS011;71067;51.482;-0.580;2024-01-30T12:32:44;0.90;;;0.50;;
81656;SDS011;71067;51.482;-0.580;2024-01-30T12:35:10;1.73;;;0.40;;
81656;SDS011;71067;51.482;-0.580;2024-01-30T12:37:36;1.10;;;0.50;;
81656;SDS011;71067;51.482;-0.580;2024-01-30T12:40:02;1.38;;;0.70;;
81656;SDS011;71067;51.482;-0.580;2024-01-30T12:42:28;1.10;;;0.60;;
81656;SDS011;71067;51.482;-0.580;2024-01-30T12:44:56;1.48;;;0.55;;
81656;SDS011;71067;51.482;-0.580;2024-01-30T12:47:22;2.78;;;0.50;;
81656;SDS011;71067;51.482;-0.580;2024-01-30T12:49:48;1.02;;;0.30;;
81656;SDS011;71067;51.482;-0.580;2024-01-30T12:52:16;1.40;;;0.40;;
81656;SDS011;71067;51.482;-0.580;2024-01-30T12:54:51;1.13;;;0.30;;
81656;SDS011;71067;51.482;-0.580;2024-01-30T12:57:17;1.27;;;0.40;;
81656;SDS011;71067;51.482;-0.580;2024-01-30T12:59:43;1.80;;;0.50;;
81656;SDS011;71067;51.482;-0.580;2024-01-30T13:02:12;1.90;;;0.50;;
81656;SDS011;71067;51.482;-0.580;2024-01-30T13:04:38;1.50;;;0.47;;
81656;SDS011;71067;51.482;-0.580;2024-01-30T13:07:03;1.10;;;0.40;;
81656;SDS011;71067;51.482;-0.580;2024-01-30T13:09:32;1.50;;;0.60;;
81656;SDS011;71067;51.482;-0.580;2024-01-30T13:11:58;1.00;;;0.40;;
81656;SDS011;71067;51.482;-0.580;2024-01-30T13:14:26;1.10;;;0.45;;
81656;SDS011;71067;51.482;-0.580;2024-01-30T13:16:54;1.05;;;0.40;;
81656;SDS011;71067;51.482;-0.580;2024-01-30T13:19:20;1.90;;;1.35;;
81656;SDS011;71067;51.482;-0.580;2024-01-30T13:21:45;2.28;;;0.80;;
81656;SDS011;71067;51.482;-0.580;2024-01-30T13:24:12;1.13;;;0.50;;
81656;SDS011;71067;51.482;-0.580;2024-01-30T13:26:38;2.03;;;0.50;;
81656;SDS011;71067;51.482;-0.580;2024-01-30T13:29:04;1.92;;;0.50;;
81656;SDS011;71067;51.482;-0.580;2024-01-30T13:31:29;1.10;;;0.30;;
81656;SDS011;71067;51.482;-0.580;2024-01-30T13:33:55;1.27;;;0.43;;
81656;SDS011;71067;51.482;-0.580;2024-01-30T13:36:21;0.80;;;0.30;;
81656;SDS011;71067;51.482;-0.580;2024-01-30T13:38:47;0.90;;;0.32;;
81656;SDS011;71067;51.482;-0.580;2024-01-30T13:41:12;2.33;;;0.50;;
81656;SDS011;71067;51.482;-0.580;2024-01-30T13:43:38;1.05;;;0.30;;
81656;SDS011;71067;51.482;-0.580;2024-01-30T13:46:03;0.63;;;0.22;;
81656;SDS011;71067;51.482;-0.580;2024-01-30T13:48:29;1.02;;;0.22;;
81656;SDS011;71067;51.482;-0.580;2024-01-30T13:50:54;2.42;;;0.28;;
81656;SDS011;71067;51.482;-0.580;2024-01-30T13:53:20;1.02;;;0.40;;
81656;SDS011;71067;51.482;-0.580;2024-01-30T13:55:46;3.30;;;1.30;;
81656;SDS011;71067;51.482;-0.580;2024-01-30T13:58:12;0.65;;;0.20;;
81656;SDS011;71067;51.482;-0.580;2024-01-30T14:00:37;1.30;;;0.40;;
81656;SDS011;71067;51.482;-0.580;2024-01-30T14:03:03;0.82;;;0.40;;
81656;SDS011;71067;51.482;-0.580;2024-01-30T14:05:29;2.03;;;0.50;;
81656;SDS011;71067;51.482;-0.580;2024-01-30T14:07:54;2.58;;;1.30;;
81656;SDS011;71067;51.482;-0.580;2024-01-30T14:10:20;2.53;;;1.08;;
81656;SDS011;71067;51.482;-0.580;2024-01-30T14:12:45;0.70;;;0.40;;
81656;SDS011;71067;51.482;-0.580;2024-01-30T14:15:13;0.98;;;0.43;;
81656;SDS011;71067;51.482;-0.580;2024-01-30T14:17:40;1.05;;;0.35;;
81656;SDS011;71067;51.482;-0.580;2024-01-30T14:20:26;0.93;;;0.30;;
81656;SDS011;71067;51.482;-0.580;2024-01-30T14:22:51;1.00;;;0.38;;
81656;SDS011;71067;51.482;-0.580;2024-01-30T14:25:20;1.30;;;0.60;;
81656;SDS011;71067;51.482;-0.580;2024-01-30T14:27:46;1.48;;;0.68;;
81656;SDS011;71067;51.482;-0.580;2024-01-30T14:30:12;2.33;;;0.60;;
81656;SDS011;71067;51.482;-0.580;2024-01-30T14:32:37;1.98;;;0.95;;
81656;SDS011;71067;51.482;-0.580;2024-01-30T14:35:04;2.28;;;0.50;;